Tim S. Dool — VGPY — position and weather

sailwx.info

Track history (hours):
 
Tides and Currents Weather Stations Pressure Air Temp Water Temp Dewpoint Dewpoint Depression Visibility Wind Speed Wind Dir Waves Ship Positions

Tim S. Dool

Last reported at 2014-Dec-18 05:00 UTC. Time now 2014-Dec-18 19:34 UTC.
Position N 48°18' W 089°06'.

Length 223 m; draft 6.4 m.

Type: Cargo ship. MMSI: 316001696.

Wind from 330 at 12 knots

Waves 0.5 meters (2 feet), 4 second period

Barometer 1024.0 mb
Air temperature -10.0 ° C
Visibility: greater than 10.8 NM

Date/timePositionNaut miles runAvg speedWind from/ knotsBaromVisibWave heightAir tempDewpointWater temp
2014-Dec-18 05:00N 48°18' W 089°06'0 0.0 330 / 121024.010.8 0.5-10.0
2014-Dec-17 19:00N 48°18' W 089°06'0 0.0 340 / 121021.010.8 1.0-6.0
2014-Dec-17 06:00N 48°18' W 089°06'331 6.8 360 / 151016.0 5.4 1.0-7.0
2014-Dec-15 05:00N 44°48' W 082°54'2512.7 140 / 81014.010.8 7.0
2014-Dec-15 03:00N 44°24' W 082°42'154 7.0 170 / 61014.0 5.4 8.0
2014-Dec-14 05:00N 41°54' W 081°54'7810.1 240 / 151013.0 2.2 7.0
2014-Dec-13 21:16N 42°26' W 080°17'17 9.6
2014-Dec-13 19:31N 42°33' W 079°57'1010.3
2014-Dec-13 18:33N 42°38' W 079°45'154 6.7
2014-Dec-12 19:34N 43°55' W 076°42'1313.2
2014-Dec-12 18:34N 44°03' W 076°27'1111.4
2014-Dec-12 17:33N 44°12' W 076°17'109 7.8
2014-Dec-12 03:33N 45°14' W 074°10'8 7.6
2014-Dec-12 02:33N 45°14' W 073°59'5 4.8
2014-Dec-12 01:33N 45°18' W 073°56'1 1.2
2014-Dec-12 00:33N 45°19' W 073°55'7 7.3
2014-Dec-11 23:33N 45°24' W 073°47'7 6.4
2014-Dec-11 22:26N 45°24' W 073°37'2 2.2
2014-Dec-11 21:32N 45°24' W 073°34'3 3.3
2014-Dec-11 20:29N 45°27' W 073°30'4 2.5
2014-Dec-11 19:06N 45°30' W 073°31'  
2014-Dec-08 21:21N 45°28' W 073°30'3 3.8
2014-Dec-08 20:27N 45°24' W 073°32'2 1.7
2014-Dec-08 19:33N 45°24' W 073°34'0 0.2
2014-Dec-08 18:33N 45°24' W 073°35'0 0.0
2014-Dec-08 17:33N 45°24' W 073°35'3 2.9
2014-Dec-08 16:33N 45°24' W 073°39'7 6.6
2014-Dec-08 15:33N 45°23' W 073°48'7 6.9
2014-Dec-08 14:33N 45°19' W 073°55'1 1.0
2014-Dec-08 13:33N 45°18' W 073°56'5 4.7
2014-Dec-08 12:32N 45°14' W 073°60'  
Track history (hours):
 
Tides and Currents Weather Stations Pressure Air Temp Water Temp Dewpoint Dewpoint Depression Visibility Wind Speed Wind Dir Waves Ship Positions

Tim S. Dool

Last reported at 2014-Dec-18 05:00 UTC. Time now 2014-Dec-18 19:34 UTC.
Position N 48°18' W 089°06'.

Length 223 m; draft 6.4 m.

Type: Cargo ship. MMSI: 316001696.

Wind from 330 at 12 knots

Waves 0.5 meters (2 feet), 4 second period

Barometer 1024.0 mb
Air temperature -10.0 ° C
Visibility: greater than 10.8 NM

Date/timePositionNaut miles runAvg speedWind from/ knotsBaromVisibWave heightAir tempDewpointWater temp
2014-Dec-18 05:00N 48°18' W 089°06'0 0.0 330 / 121024.010.8 0.5-10.0
2014-Dec-17 19:00N 48°18' W 089°06'0 0.0 340 / 121021.010.8 1.0-6.0
2014-Dec-17 06:00N 48°18' W 089°06'331 6.8 360 / 151016.0 5.4 1.0-7.0
2014-Dec-15 05:00N 44°48' W 082°54'2512.7 140 / 81014.010.8 7.0
2014-Dec-15 03:00N 44°24' W 082°42'154 7.0 170 / 61014.0 5.4 8.0
2014-Dec-14 05:00N 41°54' W 081°54'7810.1 240 / 151013.0 2.2 7.0
2014-Dec-13 21:16N 42°26' W 080°17'17 9.6
2014-Dec-13 19:31N 42°33' W 079°57'1010.3
2014-Dec-13 18:33N 42°38' W 079°45'154 6.7
2014-Dec-12 19:34N 43°55' W 076°42'1313.2
2014-Dec-12 18:34N 44°03' W 076°27'1111.4
2014-Dec-12 17:33N 44°12' W 076°17'109 7.8
2014-Dec-12 03:33N 45°14' W 074°10'8 7.6
2014-Dec-12 02:33N 45°14' W 073°59'5 4.8
2014-Dec-12 01:33N 45°18' W 073°56'1 1.2
2014-Dec-12 00:33N 45°19' W 073°55'7 7.3
2014-Dec-11 23:33N 45°24' W 073°47'7 6.4
2014-Dec-11 22:26N 45°24' W 073°37'2 2.2
2014-Dec-11 21:32N 45°24' W 073°34'3 3.3
2014-Dec-11 20:29N 45°27' W 073°30'4 2.5
2014-Dec-11 19:06N 45°30' W 073°31'  
2014-Dec-08 21:21N 45°28' W 073°30'3 3.8
2014-Dec-08 20:27N 45°24' W 073°32'2 1.7
2014-Dec-08 19:33N 45°24' W 073°34'0 0.2
2014-Dec-08 18:33N 45°24' W 073°35'0 0.0
2014-Dec-08 17:33N 45°24' W 073°35'3 2.9
2014-Dec-08 16:33N 45°24' W 073°39'7 6.6
2014-Dec-08 15:33N 45°23' W 073°48'7 6.9
2014-Dec-08 14:33N 45°19' W 073°55'1 1.0
2014-Dec-08 13:33N 45°18' W 073°56'5 4.7
2014-Dec-08 12:32N 45°14' W 073°60'  

Dump ship's entire track history